Time;durP1;ratioP1;P1;durP2;ratioP2;P2;SDS_P1;SDS_P2;PMS_P1;PMS_P2;Temp;Humidity;BMP_temperature;BMP_pressure;BME280_temperature;BME280_humidity;BME280_pressure;Samples;Min_cycle;Max_cycle;Signal;HPM_P1;HPM_P2
2023/09/29 05:44:04;;;;;;;14.30;7.70;;;;;;;22.27;47.91;98819.69;104769;1260;67788;-43
2023/09/29 05:46:31;;;;;;;13.20;8.90;;;;;;;22.29;47.97;98822.61;105422;1261;72823;-43
2023/09/29 05:48:58;;;;;;;20.50;9.00;;;;;;;22.31;47.82;98822.92;105086;1264;61232;-43
2023/09/29 05:51:26;;;;;;;18.30;9.30;;;;;;;22.32;47.54;98824.12;105092;1259;61374;-44
2023/09/29 05:53:53;;;;;;;15.30;9.60;;;;;;;22.34;47.58;98822.20;105210;1263;74288;-44
2023/09/29 05:56:21;;;;;;;16.60;10.10;;;;;;;22.34;47.70;98821.46;105300;1262;66129;-43
2023/09/29 05:58:48;;;;;;;14.50;10.10;;;;;;;22.35;47.76;98824.20;105164;1260;72657;-42
2023/09/29 06:01:16;;;;;;;20.10;10.40;;;;;;;22.36;47.73;98823.68;104996;1263;61257;-43
2023/09/29 06:03:44;;;;;;;20.90;12.00;;;;;;;22.36;48.00;98822.20;105249;1260;61243;-44
2023/09/29 06:06:12;;;;;;;19.60;10.90;;;;;;;22.37;48.06;98820.42;105175;1259;74693;-43
2023/09/29 06:08:40;;;;;;;20.60;10.90;;;;;;;22.37;48.16;98821.14;106174;1260;65991;-43
2023/09/29 06:11:11;;;;;;;17.40;10.70;;;;;;;22.38;48.47;98820.85;105034;1260;72416;-44
2023/09/29 06:13:38;;;;;;;19.00;10.40;;;;;;;22.39;48.68;98819.25;105251;1264;61306;-45
2023/09/29 06:16:05;;;;;;;17.70;10.90;;;;;;;22.41;48.75;98818.73;104967;1263;61306;-44
2023/09/29 06:18:33;;;;;;;16.30;10.90;;;;;;;22.41;48.80;98816.04;104985;1260;74622;-44
2023/09/29 06:21:01;;;;;;;15.40;10.30;;;;;;;22.42;48.82;98817.92;105235;1264;65776;-44
2023/09/29 06:23:28;;;;;;;16.30;10.60;;;;;;;22.42;49.04;98817.93;105273;1263;71235;-45
2023/09/29 06:26:00;;;;;;;18.30;10.30;;;;;;;22.43;49.05;98818.95;104994;1264;61612;-44
2023/09/29 06:28:27;;;;;;;14.20;9.70;;;;;;;22.44;49.20;98818.14;105201;1261;61242;-39
2023/09/29 06:30:58;;;;;;;22.50;10.40;;;;;;;22.45;49.40;98820.88;104883;1264;74697;-46
2023/09/29 06:33:25;;;;;;;20.40;10.40;;;;;;;22.46;49.90;98823.02;105799;1261;66941;-45
2023/09/29 06:35:53;;;;;;;18.30;10.20;;;;;;;22.47;49.76;98820.23;104935;1264;71219;-46
2023/09/29 06:38:21;;;;;;;14.10;9.70;;;;;;;22.48;49.89;98821.98;104785;1264;61274;-44
2023/09/29 06:40:48;;;;;;;15.80;9.90;;;;;;;22.50;49.72;98823.05;104886;1260;61367;-44
2023/09/29 06:43:17;;;;;;;16.20;9.00;;;;;;;22.51;49.98;98824.34;104999;1259;74297;-44
2023/09/29 06:45:45;;;;;;;13.90;9.30;;;;;;;22.52;49.89;98826.63;104819;1264;65382;-44
2023/09/29 06:48:27;;;;;;;15.20;8.20;;;;;;;22.54;49.73;98826.28;104762;1260;72805;-44
2023/09/29 06:50:59;;;;;;;12.40;8.80;;;;;;;22.55;49.88;98832.33;104788;1262;61285;-46
2023/09/29 06:53:29;;;;;;;13.90;8.90;;;;;;;22.57;49.88;98835.81;105289;1260;61427;-45
2023/09/29 06:55:58;;;;;;;13.00;8.60;;;;;;;22.59;49.86;98836.50;105187;1260;73456;-45
2023/09/29 06:58:25;;;;;;;13.80;8.80;;;;;;;22.63;50.08;98837.55;105129;1263;65483;-45
2023/09/29 07:00:56;;;;;;;13.20;8.70;;;;;;;22.65;50.10;98836.44;104939;1260;73477;-46
2023/09/29 07:03:31;;;;;;;16.20;8.50;;;;;;;22.67;50.07;98838.06;104821;1259;61169;-45
2023/09/29 07:06:02;;;;;;;11.40;8.20;;;;;;;22.69;50.27;98837.09;106874;1259;59258;-45
2023/09/29 07:08:30;;;;;;;12.20;8.00;;;;;;;22.70;50.16;98838.62;105022;1264;74782;-44
2023/09/29 07:10:58;;;;;;;10.00;7.80;;;;;;;22.72;50.11;98839.76;104986;1263;65362;-46
2023/09/29 07:13:25;;;;;;;14.20;7.80;;;;;;;22.73;50.33;98839.88;105043;1259;72515;-45
2023/09/29 07:15:53;;;;;;;11.00;8.00;;;;;;;22.75;50.12;98838.98;104840;1264;61271;-45
2023/09/29 07:18:21;;;;;;;13.40;7.80;;;;;;;22.76;50.28;98838.84;104981;1260;61286;-44
2023/09/29 07:20:52;;;;;;;11.50;7.20;;;;;;;22.77;50.04;98841.75;104867;1267;76302;-45
2023/09/29 07:23:23;;;;;;;10.50;7.30;;;;;;;22.78;50.00;98840.08;104980;1263;64793;-46
2023/09/29 07:25:52;;;;;;;12.20;7.40;;;;;;;22.80;50.07;98845.27;104875;1259;72158;-45
2023/09/29 07:32:54;;;;;;;9.70;6.80;;;;;;;22.81;49.97;98850.16;104700;1264;61410;-46
2023/09/29 07:35:21;;;;;;;9.60;6.60;;;;;;;22.82;50.04;98852.05;104949;1259;74584;-45
2023/09/29 07:37:50;;;;;;;8.50;6.90;;;;;;;22.83;50.06;98853.55;105375;1261;66133;-45
2023/09/29 07:40:17;;;;;;;11.20;7.30;;;;;;;22.84;50.20;98852.66;104902;1260;72336;-46
2023/09/29 07:42:45;;;;;;;8.90;6.60;;;;;;;22.85;50.04;98853.61;104865;1263;61282;-46
2023/09/29 07:45:12;;;;;;;9.70;6.70;;;;;;;22.86;50.02;98848.09;104942;1260;61258;-46
2023/09/29 07:47:41;;;;;;;9.00;6.50;;;;;;;22.86;50.10;98849.05;104909;1264;75459;-46
2023/09/29 07:50:14;;;;;;;11.00;7.00;;;;;;;22.87;50.09;98851.16;104924;1259;67026;-46
2023/09/29 07:52:41;;;;;;;11.00;6.90;;;;;;;22.89;50.05;98850.35;104806;1259;72401;-44
2023/09/29 07:55:09;;;;;;;8.30;6.40;;;;;;;22.89;50.01;98846.54;105025;1264;61389;-46
2023/09/29 07:57:37;;;;;;;8.50;6.80;;;;;;;22.90;49.97;98843.59;105125;1265;61369;-45
2023/09/29 08:00:05;;;;;;;8.30;6.50;;;;;;;22.90;50.08;98839.48;104920;1264;74702;-45
2023/09/29 08:02:43;;;;;;;9.10;6.40;;;;;;;22.91;50.03;98838.55;104994;1263;65062;-45
2023/09/29 08:05:13;;;;;;;8.80;6.30;;;;;;;22.92;50.16;98838.66;105085;1260;72669;-45
2023/09/29 08:07:41;;;;;;;9.20;6.80;;;;;;;22.93;50.13;98839.40;104913;1265;61440;-42
2023/09/29 08:10:11;;;;;;;8.40;6.50;;;;;;;22.94;50.13;98837.92;104902;1260;61263;-46
2023/09/29 08:12:40;;;;;;;7.60;6.40;;;;;;;22.96;50.26;98838.36;104967;1264;74335;-43
2023/09/29 08:15:11;;;;;;;12.10;6.30;;;;;;;22.96;50.37;98836.10;107808;1261;65842;-45
2023/09/29 08:17:38;;;;;;;7.70;6.50;;;;;;;22.98;50.40;98833.59;104992;1259;72311;-45
2023/09/29 08:20:07;;;;;;;9.50;6.50;;;;;;;23.00;50.57;98831.91;108790;1259;59102;-46
2023/09/29 08:22:34;;;;;;;16.70;6.90;;;;;;;23.02;50.55;98831.42;105099;1260;61372;-45
2023/09/29 08:25:09;;;;;;;8.10;6.20;;;;;;;23.04;50.64;98833.25;105112;1264;74792;-45
2023/09/29 08:27:37;;;;;;;10.00;6.10;;;;;;;23.05;50.54;98828.70;107972;1260;66080;-45
2023/09/29 08:30:06;;;;;;;12.10;6.60;;;;;;;23.08;50.52;98833.07;105078;1260;73689;-44
2023/09/29 08:32:37;;;;;;;9.20;6.10;;;;;;;23.10;50.44;98831.86;105235;1264;61402;-45
2023/09/29 08:35:05;;;;;;;8.10;6.30;;;;;;;23.11;50.48;98833.05;104967;1259;61174;-45
2023/09/29 08:37:33;;;;;;;8.40;6.20;;;;;;;23.13;50.28;98826.16;105354;1259;73631;-44
2023/09/29 08:40:00;;;;;;;8.70;6.50;;;;;;;23.14;50.22;98829.40;105498;1264;65996;-44
2023/09/29 08:42:36;;;;;;;7.60;5.90;;;;;;;23.16;50.22;98825.21;105183;1259;72658;-45
2023/09/29 08:45:14;;;;;;;8.60;5.90;;;;;;;23.19;50.34;98826.29;105158;1264;61281;-45
2023/09/29 08:47:41;;;;;;;10.50;5.60;;;;;;;23.20;50.50;98822.10;105113;1260;61299;-44
2023/09/29 08:50:09;;;;;;;9.00;5.70;;;;;;;23.21;50.31;98826.27;105432;1259;73395;-44
2023/09/29 08:52:37;;;;;;;8.20;5.40;;;;;;;23.22;50.31;98821.30;104994;1263;67774;-44
2023/09/29 08:55:05;;;;;;;10.10;6.10;;;;;;;23.23;50.22;98822.95;104884;1259;72604;-45
2023/09/29 08:57:32;;;;;;;7.20;5.30;;;;;;;23.24;50.28;98821.59;105195;1263;61259;-45
2023/09/29 09:00:00;;;;;;;9.10;5.70;;;;;;;23.25;50.20;98822.53;104864;1260;61290;-45
2023/09/29 09:02:28;;;;;;;7.70;5.50;;;;;;;23.25;50.29;98817.80;105277;1262;74565;-45
2023/09/29 09:04:57;;;;;;;7.50;5.10;;;;;;;23.26;50.08;98816.88;106626;1259;164350;-44
2023/09/29 09:07:24;;;;;;;7.10;5.50;;;;;;;23.27;50.05;98816.74;104837;1259;72293;-44
2023/09/29 09:09:55;;;;;;;6.00;5.30;;;;;;;23.28;50.22;98816.29;104906;1263;61298;-43
2023/09/29 09:12:35;;;;;;;7.60;5.50;;;;;;;23.29;50.13;98818.82;105118;1263;61429;-43
2023/09/29 09:15:03;;;;;;;9.60;4.90;;;;;;;23.30;50.28;98812.61;108852;1259;74600;-44
2023/09/29 09:17:34;;;;;;;6.80;5.30;;;;;;;23.33;50.56;98811.57;105304;1260;64918;-46
2023/09/29 09:20:01;;;;;;;11.20;5.90;;;;;;;23.34;50.65;98809.67;105293;1259;72558;-43
2023/09/29 09:22:38;;;;;;;7.20;5.40;;;;;;;23.36;50.58;98810.13;104931;1262;61281;-43
2023/09/29 09:25:14;;;;;;;7.10;5.50;;;;;;;23.39;50.90;98815.98;105131;1259;61290;-45
2023/09/29 09:27:43;;;;;;;6.90;4.90;;;;;;;23.41;50.84;98817.90;105278;1262;77206;-46
2023/09/29 09:30:21;;;;;;;8.20;5.10;;;;;;;23.43;50.61;98818.10;105056;1263;66290;-46
2023/09/29 09:32:49;;;;;;;6.00;5.20;;;;;;;23.44;50.67;98817.02;105613;1259;74027;-45
2023/09/29 09:35:25;;;;;;;9.30;5.30;;;;;;;23.45;50.29;98818.01;105100;1264;61280;-45
2023/09/29 09:37:53;;;;;;;5.90;5.30;;;;;;;23.47;50.38;98821.71;105579;1262;61158;-46
2023/09/29 09:40:21;;;;;;;6.10;5.10;;;;;;;23.48;49.37;98822.36;105051;1259;74597;-46
2023/09/29 09:42:48;;;;;;;6.30;5.00;;;;;;;23.50;48.69;98827.56;105521;1264;66440;-43
2023/09/29 09:45:16;;;;;;;7.20;4.60;;;;;;;23.51;48.38;98825.55;104840;1260;72411;-43
2023/09/29 09:47:44;;;;;;;5.40;4.60;;;;;;;23.52;47.62;98822.91;104840;1259;61163;-45
2023/09/29 09:50:11;;;;;;;7.20;4.80;;;;;;;23.53;47.00;98819.29;107388;1261;61144;-45
2023/09/29 09:52:39;;;;;;;8.30;5.20;;;;;;;23.54;46.52;98817.74;104807;1259;74676;-44
2023/09/29 09:55:11;;;;;;;8.00;5.20;;;;;;;23.55;46.89;98816.83;105000;1264;66096;-44
2023/09/29 09:57:42;;;;;;;10.90;5.60;;;;;;;23.57;47.03;98817.41;105009;1259;72481;-44
2023/09/29 10:00:12;;;;;;;8.00;5.00;;;;;;;23.57;47.32;98816.95;104920;1264;61369;-45
2023/09/29 10:02:43;;;;;;;9.30;5.80;;;;;;;23.58;47.68;98810.51;105749;1260;61223;-45
2023/09/29 10:05:30;;;;;;;9.80;5.60;;;;;;;23.59;47.72;98811.30;105277;1259;75040;-44
2023/09/29 10:08:04;;;;;;;8.30;5.30;;;;;;;23.60;48.05;98802.80;106390;1259;66312;-43
2023/09/29 10:13:42;;;;;;;8.10;4.70;;;;;;;23.63;47.91;98792.08;105235;1264;61382;-44
2023/09/29 10:16:23;;;;;;;7.40;4.90;;;;;;;23.63;47.38;98793.66;105123;1260;61677;-46
2023/09/29 10:18:58;;;;;;;5.70;4.70;;;;;;;23.63;46.59;98786.39;104793;1263;75438;-44
2023/09/29 10:21:33;;;;;;;6.10;4.80;;;;;;;23.64;46.38;98787.43;105671;1262;64847;-45
2023/09/29 10:24:05;;;;;;;;;;;;;;;23.65;46.02;98787.13;105038;1259;72684;-45
2023/09/29 10:26:48;;;;;;;4.30;3.80;;;;;;;23.65;45.89;98783.36;104996;1259;61499;-45
2023/09/29 10:29:27;;;;;;;6.60;4.50;;;;;;;23.66;46.01;98789.73;104747;1259;61294;-43
2023/09/29 10:32:30;;;;;;;6.20;3.90;;;;;;;23.65;46.14;98782.68;105329;1260;74391;-44
2023/09/29 10:35:01;;;;;;;6.10;4.30;;;;;;;23.65;45.93;98774.86;104820;1262;65500;-44
2023/09/29 10:37:41;;;;;;;5.40;4.20;;;;;;;23.65;46.18;98770.48;105016;1259;72553;-45
2023/09/29 10:40:19;;;;;;;6.10;4.50;;;;;;;23.66;46.05;98767.68;104870;1264;61298;-43
2023/09/29 10:42:48;;;;;;;9.20;4.50;;;;;;;23.66;45.80;98773.86;105756;1259;61231;-43
2023/09/29 10:45:28;;;;;;;8.20;4.50;;;;;;;23.65;45.46;98770.96;105069;1259;73772;-45
2023/09/29 10:48:05;;;;;;;6.30;4.10;;;;;;;23.66;45.63;98764.88;105323;1263;66222;-44
2023/09/29 10:50:45;;;;;;;5.50;4.30;;;;;;;23.66;45.47;98768.70;105276;1260;72747;-45
2023/09/29 10:53:13;;;;;;;5.30;4.40;;;;;;;23.66;45.24;98766.45;104761;1259;61375;-44
2023/09/29 10:55:48;;;;;;;5.70;4.30;;;;;;;23.66;44.94;98763.50;105033;1263;61384;-46
2023/09/29 10:58:17;;;;;;;12.10;4.60;;;;;;;23.67;45.02;98763.35;105145;1262;75461;-43
2023/09/29 11:00:51;;;;;;;8.40;4.50;;;;;;;23.68;45.32;98758.21;105088;1260;66290;-44
2023/09/29 11:03:26;;;;;;;10.50;4.90;;;;;;;23.69;45.14;98751.27;105195;1262;73329;-46
2023/09/29 11:06:08;;;;;;;5.20;4.20;;;;;;;23.70;43.96;98752.87;107336;1260;61251;-46
2023/09/29 11:08:42;;;;;;;6.10;4.20;;;;;;;23.71;43.65;98744.76;105147;1261;61172;-46
2023/09/29 11:11:10;;;;;;;9.30;4.50;;;;;;;23.72;43.76;98740.87;105075;1261;74587;-46
2023/09/29 11:13:37;;;;;;;6.70;4.30;;;;;;;23.72;43.75;98736.72;104954;1264;65922;-46
2023/09/29 11:16:15;;;;;;;7.00;4.10;;;;;;;23.72;43.35;98729.77;104926;1260;72566;-46
2023/09/29 11:18:44;;;;;;;9.40;4.40;;;;;;;23.73;43.49;98730.73;105290;1264;61418;-45
2023/09/29 11:21:12;;;;;;;6.20;4.50;;;;;;;23.73;43.64;98730.21;104952;1262;61260;-46
2023/09/29 11:23:43;;;;;;;10.90;4.50;;;;;;;23.74;43.52;98728.04;104868;1264;75402;-46
2023/09/29 11:26:12;;;;;;;7.30;4.60;;;;;;;23.74;43.04;98722.72;105010;1262;66375;-46
2023/09/29 11:28:48;;;;;;;6.80;4.80;;;;;;;23.75;43.26;98727.58;104851;1262;72624;-46
2023/09/29 11:31:16;;;;;;;8.10;4.70;;;;;;;23.75;43.38;98725.46;104830;1264;61287;-45
2023/09/29 11:33:44;;;;;;;6.30;4.40;;;;;;;23.76;43.08;98719.63;104620;1259;61287;-47
2023/09/29 11:36:17;;;;;;;8.40;4.40;;;;;;;23.78;43.57;98721.94;105017;1261;74968;-46
2023/09/29 11:38:45;;;;;;;7.40;4.70;;;;;;;23.80;43.72;98715.17;104919;1264;66404;-46
2023/09/29 11:41:13;;;;;;;7.10;4.50;;;;;;;23.82;43.61;98712.02;104849;1266;73394;-45
2023/09/29 11:43:41;;;;;;;8.40;4.40;;;;;;;23.83;43.36;98709.30;105116;1264;61386;-45
2023/09/29 11:46:08;;;;;;;4.80;4.10;;;;;;;23.84;43.47;98705.58;105107;1262;61394;-49
2023/09/29 11:48:38;;;;;;;7.80;4.00;;;;;;;23.86;43.58;98704.11;105023;1260;74748;-46
2023/09/29 11:51:08;;;;;;;10.30;4.30;;;;;;;23.88;43.70;98704.09;104955;1263;65836;-44
2023/09/29 11:53:36;;;;;;;5.50;3.90;;;;;;;23.90;43.84;98707.40;105280;1263;72693;-46
2023/09/29 11:56:03;;;;;;;7.30;4.40;;;;;;;23.92;43.88;98703.23;105157;1264;61316;-45
2023/09/29 11:58:31;;;;;;;7.40;4.70;;;;;;;23.94;43.86;98698.64;104971;1259;61394;-45
2023/09/29 12:01:00;;;;;;;5.60;4.10;;;;;;;23.95;43.78;98697.27;105064;1259;74393;-45
2023/09/29 12:03:28;;;;;;;6.80;3.80;;;;;;;23.97;43.84;98702.86;105094;1260;66000;-45
2023/09/29 12:05:58;;;;;;;5.30;3.90;;;;;;;23.98;43.87;98695.38;104921;1259;73685;-43
2023/09/29 12:08:26;;;;;;;6.90;3.80;;;;;;;23.99;43.89;98694.55;104963;1260;62470;-44
2023/09/29 12:10:53;;;;;;;6.80;4.00;;;;;;;24.00;43.83;98695.34;104862;1259;61376;-47
2023/09/29 12:13:21;;;;;;;5.80;3.90;;;;;;;24.02;43.88;98692.64;105219;1263;74573;-45
2023/09/29 12:15:48;;;;;;;8.90;4.50;;;;;;;24.05;43.75;98690.81;105088;1259;66795;-48
2023/09/29 12:18:16;;;;;;;8.60;3.90;;;;;;;24.07;43.56;98683.45;105151;1263;73183;-47
2023/09/29 12:20:43;;;;;;;7.90;3.80;;;;;;;24.09;43.45;98684.29;105421;1264;61503;-47
2023/09/29 12:23:11;;;;;;;6.20;3.90;;;;;;;24.10;43.58;98680.16;105263;1259;61881;-45
2023/09/29 12:25:38;;;;;;;5.30;4.20;;;;;;;24.11;43.21;98673.00;105085;1264;75560;-46
2023/09/29 12:28:06;;;;;;;6.50;4.00;;;;;;;24.13;43.17;98672.78;105242;1260;66248;-47
2023/09/29 12:30:34;;;;;;;10.20;3.90;;;;;;;24.14;43.25;98668.98;105137;1264;72598;-48
2023/09/29 12:33:01;;;;;;;8.60;4.40;;;;;;;24.15;43.23;98667.75;105365;1263;61320;-47
2023/09/29 12:35:29;;;;;;;9.00;4.00;;;;;;;24.17;43.28;98668.88;105055;1260;61372;-45
2023/09/29 12:37:56;;;;;;;5.40;4.00;;;;;;;24.18;43.48;98661.02;104800;1259;75213;-46
2023/09/29 12:40:23;;;;;;;6.70;4.30;;;;;;;24.20;43.83;98659.70;105191;1262;65422;-50
2023/09/29 12:42:51;;;;;;;6.40;3.80;;;;;;;24.21;43.87;98662.61;105722;1259;73556;-45
2023/09/29 12:45:23;;;;;;;12.00;4.20;;;;;;;24.23;43.78;98656.23;105169;1262;61297;-48
2023/09/29 12:47:51;;;;;;;5.20;4.30;;;;;;;24.25;43.70;98656.45;105629;1259;61291;-48
2023/09/29 12:50:21;;;;;;;8.10;4.30;;;;;;;24.26;43.51;98653.79;105287;1260;74830;-48
2023/09/29 12:52:51;;;;;;;5.10;3.80;;;;;;;24.27;43.43;98651.32;105256;1259;67491;-47
2023/09/29 12:55:19;;;;;;;6.70;4.10;;;;;;;24.28;43.36;98652.89;105272;1259;72628;-48
2023/09/29 12:57:47;;;;;;;5.70;3.80;;;;;;;24.29;43.31;98650.08;105255;1259;62020;-45
2023/09/29 13:00:22;;;;;;;4.80;3.80;;;;;;;24.30;43.25;98646.75;105591;1259;61225;-46
2023/09/29 13:02:53;;;;;;;7.00;4.10;;;;;;;24.30;43.37;98647.70;105171;1259;74691;-47
2023/09/29 13:05:22;;;;;;;4.50;3.90;;;;;;;24.30;43.34;98646.21;105175;1264;66083;-47
2023/09/29 13:07:51;;;;;;;6.00;3.60;;;;;;;24.31;43.67;98644.48;105859;1259;72641;-43
2023/09/29 13:10:19;;;;;;;6.40;3.90;;;;;;;24.32;43.77;98641.15;105377;1262;61255;-46
2023/09/29 13:12:54;;;;;;;5.10;3.70;;;;;;;24.34;44.08;98638.37;105159;1259;61359;-46
2023/09/29 13:15:22;;;;;;;6.50;4.20;;;;;;;24.34;44.35;98630.63;105389;1260;74770;-47
2023/09/29 13:17:50;;;;;;;6.80;4.00;;;;;;;24.36;44.77;98625.10;105395;1262;66783;-45
2023/09/29 13:20:17;;;;;;;7.90;3.40;;;;;;;24.37;45.17;98624.66;105466;1260;72640;-48
2023/09/29 13:22:45;;;;;;;6.50;3.80;;;;;;;24.39;45.27;98625.23;105426;1262;61250;-46
2023/09/29 13:25:12;;;;;;;7.10;3.80;;;;;;;24.39;45.40;98625.16;105270;1259;61318;-46
2023/09/29 13:27:40;;;;;;;5.80;4.20;;;;;;;24.40;45.63;98624.16;105354;1262;74666;-46
2023/09/29 13:30:09;;;;;;;7.80;3.60;;;;;;;24.40;45.57;98624.95;105381;1262;65963;-47
2023/09/29 13:32:36;;;;;;;6.50;3.40;;;;;;;24.42;45.91;98627.39;105285;1262;72634;-47
2023/09/29 13:35:04;;;;;;;6.70;3.60;;;;;;;24.42;45.78;98621.46;105401;1262;61314;-46
2023/09/29 13:37:33;;;;;;;5.70;3.80;;;;;;;24.43;45.94;98625.61;105478;1259;61356;-46
2023/09/29 13:40:01;;;;;;;5.70;3.60;;;;;;;24.43;46.30;98620.08;105454;1262;76131;-46
2023/09/29 13:42:28;;;;;;;4.90;3.50;;;;;;;24.44;46.32;98621.34;105210;1262;65714;-47
2023/09/29 13:44:56;;;;;;;4.30;3.60;;;;;;;24.45;46.41;98620.56;105199;1259;75082;-46
2023/09/29 13:47:26;;;;;;;4.90;3.60;;;;;;;24.46;46.69;98617.54;105194;1265;61382;-46
2023/09/29 13:49:55;;;;;;;4.70;3.50;;;;;;;24.47;46.41;98613.02;105267;1263;61351;-47
2023/09/29 13:52:22;;;;;;;4.10;3.40;;;;;;;24.49;46.82;98609.98;105237;1264;75643;-47
2023/09/29 13:54:50;;;;;;;4.10;3.70;;;;;;;24.49;46.90;98608.98;105232;1264;65005;-45
2023/09/29 13:57:17;;;;;;;5.10;3.50;;;;;;;24.50;46.87;98608.13;105165;1265;72693;-44
2023/09/29 13:59:45;;;;;;;4.50;3.40;;;;;;;24.50;46.93;98605.86;105132;1264;61367;-46
2023/09/29 14:02:12;;;;;;;8.00;3.40;;;;;;;24.50;47.15;98601.55;105001;1261;61254;-46
2023/09/29 14:04:40;;;;;;;4.50;3.50;;;;;;;24.49;47.21;98600.52;105075;1263;75097;-48
2023/09/29 14:07:08;;;;;;;6.10;4.00;;;;;;;24.49;47.31;98598.10;105127;1262;66562;-46
2023/09/29 14:09:36;;;;;;;5.50;3.70;;;;;;;24.48;47.17;98599.50;105137;1259;72642;-46
2023/09/29 14:12:05;;;;;;;5.70;4.00;;;;;;;24.49;47.37;98598.33;105009;1263;61369;-47
2023/09/29 14:14:34;;;;;;;4.20;3.40;;;;;;;24.48;47.42;98598.64;105125;1259;61851;-43
2023/09/29 14:17:02;;;;;;;6.80;3.30;;;;;;;24.48;47.48;98596.61;105097;1264;74474;-45
2023/09/29 14:19:29;;;;;;;5.70;3.70;;;;;;;24.47;47.58;98592.45;105088;1263;66065;-44
2023/09/29 14:21:56;;;;;;;4.90;3.80;;;;;;;24.48;47.60;98591.20;105058;1259;72648;-47
2023/09/29 14:24:24;;;;;;;6.10;3.40;;;;;;;24.47;47.83;98586.73;104910;1265;61259;-47
2023/09/29 14:26:52;;;;;;;6.60;3.60;;;;;;;24.47;47.76;98586.73;104818;1260;61383;-46
2023/09/29 14:29:20;;;;;;;6.20;3.70;;;;;;;24.47;47.54;98584.08;108871;1260;74611;-47
2023/09/29 14:31:47;;;;;;;8.10;4.00;;;;;;;24.47;47.42;98583.45;108884;1261;66150;-47
2023/09/29 14:34:15;;;;;;;4.40;3.80;;;;;;;24.46;47.28;98577.19;105572;1261;72348;-48
2023/09/29 14:36:43;;;;;;;5.20;4.00;;;;;;;24.46;47.58;98577.10;105207;1261;61339;-47
2023/09/29 14:39:10;;;;;;;6.30;3.80;;;;;;;24.45;47.38;98580.67;105121;1262;61200;-47
2023/09/29 14:41:38;;;;;;;5.60;3.70;;;;;;;24.44;47.30;98580.98;106569;1260;74666;-47
2023/09/29 14:44:06;;;;;;;5.20;4.00;;;;;;;24.43;47.10;98577.20;104962;1265;66286;-46
2023/09/29 14:46:33;;;;;;;4.90;3.70;;;;;;;24.41;47.14;98577.10;104876;1259;73212;-47
2023/09/29 14:49:01;;;;;;;5.20;4.10;;;;;;;24.40;47.24;98575.27;105311;1265;61268;-47
2023/09/29 14:51:28;;;;;;;4.20;3.60;;;;;;;24.39;46.92;98575.73;105126;1259;61273;-47
2023/09/29 14:53:56;;;;;;;5.30;3.70;;;;;;;24.37;47.19;98577.20;105014;1260;74447;-47
2023/09/29 14:56:24;;;;;;;7.00;3.70;;;;;;;24.36;47.22;98574.81;105098;1263;66379;-47
2023/09/29 14:58:52;;;;;;;5.40;4.10;;;;;;;24.34;47.06;98569.94;105170;1259;72317;-48
2023/09/29 15:01:19;;;;;;;5.00;3.70;;;;;;;24.32;46.88;98566.39;105191;1265;61273;-46
2023/09/29 15:03:48;;;;;;;8.10;4.10;;;;;;;24.31;47.11;98564.17;105358;1262;61257;-47
2023/09/29 15:06:16;;;;;;;4.70;3.90;;;;;;;24.29;47.04;98562.11;105330;1263;74469;-47
2023/09/29 15:08:43;;;;;;;5.10;4.00;;;;;;;24.27;46.92;98561.30;105304;1264;66009;-46
2023/09/29 15:11:16;;;;;;;5.00;4.40;;;;;;;24.26;47.07;98565.58;105327;1259;72618;-47
2023/09/29 15:13:45;;;;;;;7.70;4.50;;;;;;;24.24;46.96;98565.46;105346;1264;61291;-47
2023/09/29 16:34:45;;;;;;;9.40;6.30;;;;;;;23.64;47.33;98559.45;105181;1265;61371;-46
2023/09/29 16:37:15;;;;;;;9.80;7.90;;;;;;;23.63;47.17;98561.14;105247;1259;61389;-46
2023/09/29 16:39:43;;;;;;;12.60;8.20;;;;;;;23.63;47.33;98565.12;105140;1265;74725;-46
2023/09/29 16:42:10;;;;;;;12.60;7.70;;;;;;;23.62;47.29;98564.73;105103;1264;66122;-46
2023/09/29 16:44:38;;;;;;;9.60;7.40;;;;;;;23.61;47.31;98562.58;104964;1265;72645;-46
2023/09/29 16:47:05;;;;;;;17.50;9.50;;;;;;;23.61;47.49;98554.22;105004;1266;61368;-45
2023/09/29 16:49:32;;;;;;;15.50;9.60;;;;;;;23.60;47.33;98555.55;105182;1260;61212;-45
2023/09/29 16:52:00;;;;;;;13.80;10.00;;;;;;;23.59;47.38;98557.23;105204;1260;74415;-45
2023/09/29 16:54:27;;;;;;;17.60;11.00;;;;;;;23.58;47.30;98562.76;105069;1264;66393;-46
2023/09/29 16:56:56;;;;;;;17.50;11.40;;;;;;;23.58;47.46;98558.85;105309;1263;72264;-46
2023/09/29 16:59:23;;;;;;;16.00;11.20;;;;;;;23.57;47.63;98559.46;105244;1263;61340;-46
2023/09/29 17:01:51;;;;;;;16.70;12.00;;;;;;;23.56;47.51;98561.40;105152;1259;61369;-46
2023/09/29 17:04:18;;;;;;;16.40;11.50;;;;;;;23.55;47.44;98562.39;105043;1260;75411;-46
2023/09/29 17:06:46;;;;;;;16.60;11.40;;;;;;;23.54;47.28;98562.30;105073;1263;65876;-46
2023/09/29 17:09:13;;;;;;;15.50;11.10;;;;;;;23.53;47.31;98566.82;105084;1259;72600;-46
2023/09/29 17:11:44;;;;;;;17.60;12.20;;;;;;;23.52;47.35;98564.70;105043;1273;61289;-46
2023/09/29 17:14:12;;;;;;;17.10;12.20;;;;;;;23.52;47.42;98567.72;105228;1263;61260;-46
2023/09/29 17:16:40;;;;;;;17.40;11.80;;;;;;;23.50;47.36;98571.20;105156;1265;74512;-46
2023/09/29 17:19:07;;;;;;;15.40;11.90;;;;;;;23.50;47.45;98572.05;105271;1264;66005;-46
2023/09/29 17:21:34;;;;;;;15.00;12.20;;;;;;;23.49;47.39;98571.40;105138;1261;72516;-45
2023/09/29 17:24:02;;;;;;;19.30;12.60;;;;;;;23.47;47.47;98568.19;105291;1263;61270;-46
2023/09/29 17:26:30;;;;;;;18.00;12.60;;;;;;;23.48;47.54;98572.39;105327;1259;61477;-46
2023/09/29 17:28:57;;;;;;;18.30;12.40;;;;;;;23.46;47.44;98570.73;105165;1261;74581;-46
2023/09/29 17:31:25;;;;;;;17.00;12.20;;;;;;;23.45;47.50;98570.34;105160;1265;66247;-46
2023/09/29 17:33:55;;;;;;;22.80;12.10;;;;;;;23.45;47.47;98572.11;105045;1260;73799;-46
2023/09/29 17:36:23;;;;;;;17.30;12.10;;;;;;;23.43;47.59;98569.90;105277;1265;61245;-46
2023/09/29 17:38:52;;;;;;;15.60;11.70;;;;;;;23.43;47.54;98571.52;105111;1260;61301;-46
2023/09/29 17:41:20;;;;;;;19.30;12.10;;;;;;;23.42;47.41;98568.61;105237;1260;75915;-46
2023/09/29 17:43:47;;;;;;;17.40;11.50;;;;;;;23.41;47.41;98567.27;105295;1265;66795;-47
2023/09/29 17:46:15;;;;;;;17.80;12.00;;;;;;;23.40;47.43;98571.15;105092;1264;73688;-46
2023/09/29 17:48:42;;;;;;;17.80;12.60;;;;;;;23.39;47.45;98568.16;105183;1265;61367;-47
2023/09/29 17:51:11;;;;;;;16.50;12.70;;;;;;;23.38;47.35;98571.19;105197;1259;61321;-46
2023/09/29 17:53:39;;;;;;;23.60;12.40;;;;;;;23.36;47.38;98570.30;105135;1261;75342;-47
2023/09/29 17:56:07;;;;;;;22.50;12.40;;;;;;;23.36;47.34;98572.16;105153;1263;67192;-46
2023/09/29 17:58:34;;;;;;;15.90;12.30;;;;;;;23.35;47.54;98571.91;105077;1263;73500;-44
2023/09/29 18:01:06;;;;;;;15.70;12.40;;;;;;;23.34;47.71;98573.35;104999;1265;61343;-47
2023/09/29 18:03:33;;;;;;;18.00;12.50;;;;;;;23.33;47.48;98573.63;105050;1264;61384;-45
2023/09/29 18:06:01;;;;;;;17.80;12.70;;;;;;;23.33;47.48;98571.61;105182;1260;74703;-45
2023/09/29 18:08:29;;;;;;;18.10;12.00;;;;;;;23.31;47.60;98574.69;105163;1263;66103;-46
2023/09/29 18:10:56;;;;;;;18.30;12.60;;;;;;;23.30;47.43;98578.59;104993;1260;73283;-45
2023/09/29 18:13:24;;;;;;;16.30;12.20;;;;;;;23.29;47.55;98571.61;105023;1265;61283;-46
2023/09/29 18:15:52;;;;;;;23.60;12.30;;;;;;;23.28;47.58;98569.39;105150;1259;61245;-46
2023/09/29 18:18:19;;;;;;;16.90;12.20;;;;;;;23.27;47.48;98568.29;105135;1264;74302;-45
2023/09/29 18:20:47;;;;;;;17.20;11.70;;;;;;;23.27;47.59;98571.88;105181;1264;65332;-44
2023/09/29 18:23:14;;;;;;;14.70;12.20;;;;;;;23.26;47.63;98568.34;105164;1260;73553;-46
2023/09/29 18:25:42;;;;;;;15.10;11.80;;;;;;;23.25;47.74;98571.52;105089;1273;61370;-47
2023/09/29 18:28:09;;;;;;;18.20;12.90;;;;;;;23.24;47.54;98572.61;105290;1260;61323;-47
2023/09/29 18:30:37;;;;;;;16.70;11.90;;;;;;;23.23;47.69;98573.91;105087;1263;74373;-47
2023/09/29 18:33:04;;;;;;;17.00;12.40;;;;;;;23.23;47.63;98574.83;105309;1263;65605;-47
2023/09/29 18:35:32;;;;;;;15.90;12.10;;;;;;;23.22;47.56;98575.67;105298;1265;73312;-48
2023/09/29 18:37:59;;;;;;;14.00;11.90;;;;;;;23.22;47.60;98576.21;105494;1273;61270;-47